createdAt,value
2023-10-12T00:00:35.239Z,11.60
2023-10-12T00:03:04.463Z,11.50
2023-10-12T00:05:33.759Z,11.50
2023-10-12T00:08:09.504Z,11.50
2023-10-12T00:10:45.644Z,11.60
2023-10-12T00:13:13.422Z,11.50
2023-10-12T00:15:47.598Z,11.50
2023-10-12T00:18:16.134Z,11.50
2023-10-12T00:20:53.043Z,11.40
2023-10-12T00:23:21.112Z,11.30
2023-10-12T00:25:56.357Z,11.40
2023-10-12T00:28:29.551Z,11.40
2023-10-12T00:31:06.719Z,11.40
2023-10-12T00:33:34.900Z,11.30
2023-10-12T00:36:05.958Z,11.40
2023-10-12T00:38:33.997Z,11.30
2023-10-12T00:41:06.425Z,11.30
2023-10-12T00:43:44.913Z,11.40
2023-10-12T00:46:27.475Z,11.30
2023-10-12T00:49:13.928Z,11.30
2023-10-12T00:52:07.017Z,11.30
2023-10-12T00:54:36.851Z,11.20
2023-10-12T00:57:04.972Z,11.10
2023-10-12T00:59:35.040Z,11.20
2023-10-12T01:02:10.179Z,11.20
2023-10-12T01:04:40.477Z,11.20
2023-10-12T01:07:08.797Z,11.20
2023-10-12T01:09:44.786Z,11.20
2023-10-12T01:12:15.916Z,11.20
2023-10-12T01:14:45.416Z,11.10
2023-10-12T01:17:19.262Z,11.10
2023-10-12T01:19:47.079Z,11.00
2023-10-12T01:22:26.916Z,11.10
2023-10-12T01:24:55.809Z,11.10
2023-10-12T01:27:24.618Z,11.10
2023-10-12T01:29:53.809Z,11.00
2023-10-12T01:32:29.307Z,11.00
2023-10-12T01:34:59.008Z,11.10
2023-10-12T01:37:27.500Z,11.10
2023-10-12T01:40:03.315Z,11.00
2023-10-12T01:42:52.633Z,11.00
2023-10-12T01:45:24.721Z,11.20
2023-10-12T01:47:58.859Z,11.20
2023-10-12T01:50:26.778Z,11.20
2023-10-12T01:52:55.337Z,11.20
2023-10-12T01:55:32.208Z,11.30
2023-10-12T01:58:01.147Z,11.30
2023-10-12T02:00:31.826Z,11.50
2023-10-12T02:03:07.076Z,11.40
2023-10-12T02:05:37.577Z,11.40
2023-10-12T02:08:06.737Z,11.40
2023-10-12T02:10:42.783Z,11.40
2023-10-12T02:13:12.117Z,11.50
2023-10-12T02:15:40.599Z,11.40
2023-10-12T02:18:12.531Z,11.50
2023-10-12T02:20:49.558Z,11.40
2023-10-12T02:23:17.281Z,11.40
2023-10-12T02:25:52.031Z,11.30
2023-10-12T02:28:24.314Z,11.30
2023-10-12T02:30:55.183Z,11.20
2023-10-12T02:33:35.344Z,11.10
2023-10-12T02:36:11.194Z,11.00
2023-10-12T02:38:38.855Z,11.00
2023-10-12T02:41:07.016Z,11.10
2023-10-12T02:43:35.895Z,11.00
2023-10-12T02:46:18.766Z,11.00
2023-10-12T02:48:48.723Z,11.00
2023-10-12T02:51:18.962Z,10.90
2023-10-12T02:53:49.006Z,10.80
2023-10-12T02:56:22.971Z,10.80
2023-10-12T02:58:50.826Z,10.80
2023-10-12T03:01:20.730Z,10.80
2023-10-12T03:03:51.900Z,10.80
2023-10-12T03:06:25.404Z,10.80
2023-10-12T03:09:02.222Z,10.70
2023-10-12T03:11:30.950Z,10.70
2023-10-12T03:14:14.107Z,10.80
2023-10-12T03:16:47.232Z,10.80
2023-10-12T03:19:23.938Z,10.90
2023-10-12T03:22:04.691Z,11.00
2023-10-12T03:24:52.943Z,11.00
2023-10-12T03:27:24.777Z,11.10
2023-10-12T03:29:57.037Z,11.10
2023-10-12T03:32:24.988Z,11.00
2023-10-12T03:34:53.006Z,11.00
2023-10-12T03:37:44.657Z,11.00
2023-10-12T03:40:45.079Z,11.00
2023-10-12T03:43:42.530Z,11.00
2023-10-12T03:46:19.756Z,11.20
2023-10-12T03:49:05.507Z,11.10
2023-10-12T03:51:42.171Z,11.20
2023-10-12T03:54:30.557Z,11.20
2023-10-12T03:57:28.293Z,11.30
2023-10-12T04:00:11.168Z,11.20
2023-10-12T04:02:52.351Z,11.10
2023-10-12T04:05:32.980Z,11.20
2023-10-12T04:08:23.301Z,11.20
2023-10-12T04:11:10.939Z,11.20
2023-10-12T04:13:41.296Z,11.10
2023-10-12T04:16:09.085Z,11.20
2023-10-12T04:18:44.250Z,11.20
2023-10-12T04:21:12.260Z,11.20
2023-10-12T04:23:49.352Z,11.30
2023-10-12T04:26:17.377Z,11.30
2023-10-12T04:28:54.392Z,11.40
2023-10-12T04:31:22.652Z,11.40
2023-10-12T04:34:06.123Z,11.40
2023-10-12T04:36:39.597Z,11.40
2023-10-12T04:39:09.852Z,11.50
2023-10-12T04:41:46.688Z,11.50
2023-10-12T04:44:30.427Z,11.50
2023-10-12T04:47:11.885Z,11.50
2023-10-12T04:49:44.783Z,11.40
2023-10-12T04:52:18.822Z,11.40
2023-10-12T04:54:58.056Z,11.30
2023-10-12T04:57:33.657Z,11.20
2023-10-12T05:00:29.263Z,11.10
2023-10-12T05:03:03.999Z,10.90
2023-10-12T05:05:50.336Z,10.70
2023-10-12T05:08:18.036Z,10.60
2023-10-12T05:10:48.641Z,10.50
2023-10-12T05:13:24.008Z,10.40
2023-10-12T05:15:56.780Z,10.50
2023-10-12T05:18:26.437Z,10.40
2023-10-12T05:20:54.251Z,10.30
2023-10-12T05:23:22.872Z,10.30
2023-10-12T05:25:59.435Z,10.30
2023-10-12T05:28:33.415Z,10.30
2023-10-12T05:31:11.146Z,10.30
2023-10-12T05:33:39.724Z,10.30
2023-10-12T05:36:13.100Z,10.30
2023-10-12T05:39:00.372Z,10.30
2023-10-12T05:41:33.909Z,10.30
2023-10-12T05:44:10.241Z,10.30
2023-10-12T05:46:39.377Z,10.40
2023-10-12T05:49:16.000Z,10.40
2023-10-12T05:51:45.459Z,10.50
2023-10-12T05:54:20.931Z,10.60
2023-10-12T05:56:53.830Z,10.60
2023-10-12T05:59:23.620Z,10.60
2023-10-12T06:01:51.741Z,10.70
2023-10-12T06:04:23.368Z,10.90
2023-10-12T06:06:53.852Z,10.90
2023-10-12T06:09:37.115Z,11.00
2023-10-12T06:12:10.404Z,11.00
2023-10-12T06:14:39.821Z,11.10
2023-10-12T06:17:07.708Z,11.20
2023-10-12T06:19:36.031Z,11.40
2023-10-12T06:22:24.743Z,11.50
2023-10-12T06:24:55.047Z,11.60
2023-10-12T06:27:22.864Z,11.70
2023-10-12T06:29:55.828Z,11.80
2023-10-12T06:32:34.999Z,11.90
2023-10-12T06:35:06.315Z,11.90
2023-10-12T06:37:53.439Z,12.10
2023-10-12T06:40:24.982Z,12.20
2023-10-12T06:43:14.528Z,12.20
2023-10-12T06:45:56.575Z,12.30
2023-10-12T06:48:31.985Z,12.40
2023-10-12T06:51:05.146Z,12.40
2023-10-12T06:53:37.785Z,12.60
2023-10-12T06:56:17.508Z,12.80
2023-10-12T06:59:10.653Z,12.80
2023-10-12T07:01:51.596Z,12.90
2023-10-12T07:04:30.245Z,13.00
2023-10-12T07:06:58.702Z,13.10
2023-10-12T07:09:41.462Z,13.30
2023-10-12T07:12:14.907Z,13.40
2023-10-12T07:14:56.790Z,13.50
2023-10-12T07:17:29.151Z,13.50
2023-10-12T07:19:56.849Z,13.60
2023-10-12T07:22:24.712Z,13.80
2023-10-12T07:24:55.227Z,13.80
2023-10-12T07:27:25.536Z,13.90
2023-10-12T07:30:11.019Z,14.00
2023-10-12T07:32:56.163Z,14.20
2023-10-12T07:35:36.056Z,14.10
2023-10-12T07:38:07.651Z,14.20
2023-10-12T07:40:42.209Z,14.30
2023-10-12T07:43:12.626Z,14.40
2023-10-12T07:45:49.803Z,14.40
2023-10-12T07:48:33.103Z,14.50
2023-10-12T07:51:19.705Z,14.60
2023-10-12T07:53:52.082Z,14.70
2023-10-12T07:56:19.807Z,14.80
2023-10-12T07:58:58.332Z,14.80
2023-10-12T08:01:32.231Z,14.80
2023-10-12T08:04:00.539Z,14.80
2023-10-12T08:06:43.556Z,14.80
2023-10-12T08:09:26.962Z,14.90
2023-10-12T08:11:55.227Z,15.10
2023-10-12T08:14:23.148Z,15.30
2023-10-12T08:17:10.309Z,15.50
2023-10-12T08:19:41.158Z,15.50
2023-10-12T08:22:30.007Z,15.70
2023-10-12T08:25:05.866Z,15.60
2023-10-12T08:27:44.883Z,15.50
2023-10-12T08:30:43.173Z,15.90
2023-10-12T08:33:17.348Z,16.00
2023-10-12T08:36:03.718Z,15.70
2023-10-12T08:38:57.592Z,15.60
2023-10-12T08:41:28.809Z,16.00
2023-10-12T08:44:00.938Z,16.20
2023-10-12T08:46:47.253Z,16.10
2023-10-12T08:49:33.769Z,16.30
2023-10-12T08:52:07.207Z,16.30
2023-10-12T08:54:39.917Z,16.40
2023-10-12T08:57:39.108Z,16.30
2023-10-12T09:00:23.317Z,16.50
2023-10-12T09:03:21.383Z,16.60
2023-10-12T09:05:56.204Z,16.60
2023-10-12T09:08:24.121Z,16.80
2023-10-12T09:10:56.174Z,17.00
2023-10-12T09:13:34.881Z,16.70
2023-10-12T09:16:15.613Z,16.80
2023-10-12T09:19:07.797Z,16.90
2023-10-12T09:21:40.931Z,16.90
2023-10-12T09:24:21.247Z,17.20
2023-10-12T09:27:12.673Z,17.40
2023-10-12T09:29:58.593Z,17.80
2023-10-12T09:32:28.129Z,17.80
2023-10-12T09:35:12.953Z,17.80
2023-10-12T09:37:51.059Z,17.80
2023-10-12T09:40:41.508Z,17.60
2023-10-12T09:43:14.078Z,17.50
2023-10-12T09:45:56.688Z,17.70
2023-10-12T09:48:30.559Z,17.70
2023-10-12T09:50:58.731Z,17.80
2023-10-12T09:53:41.585Z,17.80
2023-10-12T09:56:25.864Z,18.10
2023-10-12T09:59:04.556Z,18.20
2023-10-12T10:01:41.473Z,18.00
2023-10-12T10:04:28.141Z,17.90
2023-10-12T10:07:16.333Z,18.10
2023-10-12T10:09:58.063Z,18.10
2023-10-12T10:12:28.891Z,18.20
2023-10-12T10:15:11.581Z,18.00
2023-10-12T10:17:48.800Z,18.00
2023-10-12T10:20:29.141Z,18.20
2023-10-12T10:22:59.999Z,18.10
2023-10-12T10:25:44.247Z,18.20
2023-10-12T10:28:20.012Z,18.20
2023-10-12T10:30:51.467Z,18.60
2023-10-12T10:33:24.322Z,18.80
2023-10-12T10:35:58.026Z,18.80
2023-10-12T10:38:33.650Z,18.90
2023-10-12T10:41:19.681Z,18.80
2023-10-12T10:43:47.653Z,18.90
2023-10-12T10:46:18.019Z,18.90
2023-10-12T10:49:23.458Z,19.10
2023-10-12T10:51:43.926Z,19.00
2023-10-12T10:54:20.324Z,19.00
2023-10-12T10:56:50.173Z,19.20
2023-10-12T10:59:20.608Z,19.50
2023-10-12T11:01:51.681Z,19.30
2023-10-12T11:04:39.503Z,19.30
2023-10-12T11:07:13.652Z,19.30
2023-10-12T11:09:54.527Z,19.60
2023-10-12T11:12:26.338Z,19.90
2023-10-12T11:15:13.515Z,19.90
2023-10-12T11:17:57.727Z,19.90
2023-10-12T11:20:30.776Z,19.90
2023-10-12T11:23:04.669Z,20.20
2023-10-12T11:25:41.063Z,20.00
2023-10-12T11:28:22.417Z,20.30
2023-10-12T11:30:54.268Z,20.50
2023-10-12T11:33:28.444Z,20.30
2023-10-12T11:36:02.123Z,20.30
2023-10-12T11:38:29.965Z,20.30
2023-10-12T11:41:12.947Z,20.30
2023-10-12T11:43:54.186Z,20.70
2023-10-12T11:46:25.515Z,20.80
2023-10-12T11:49:05.829Z,20.80
2023-10-12T11:51:41.202Z,20.90
2023-10-12T11:54:21.331Z,20.80
2023-10-12T11:56:51.023Z,20.80
2023-10-12T11:59:32.164Z,20.70
2023-10-12T12:02:07.967Z,20.90
2023-10-12T12:04:50.283Z,21.00
2023-10-12T12:07:25.132Z,20.80
2023-10-12T12:09:54.717Z,20.90
2023-10-12T12:12:22.458Z,21.10
2023-10-12T12:14:50.191Z,20.90
2023-10-12T12:17:17.886Z,21.00
2023-10-12T12:19:45.725Z,21.00
2023-10-12T12:22:16.499Z,21.00
2023-10-12T12:24:46.865Z,21.20
2023-10-12T12:27:33.078Z,21.20
2023-10-12T12:30:16.509Z,21.20
2023-10-12T12:32:50.538Z,21.30
2023-10-12T12:35:18.249Z,21.10
2023-10-12T12:37:45.856Z,21.30
2023-10-12T12:40:30.408Z,21.50
2023-10-12T12:42:59.289Z,21.30
2023-10-12T12:45:26.851Z,21.20
2023-10-12T12:47:57.085Z,21.20
2023-10-12T12:50:24.798Z,21.50
2023-10-12T12:52:52.439Z,21.40
2023-10-12T12:55:22.369Z,21.40
2023-10-12T12:57:50.111Z,21.30
2023-10-12T13:00:23.594Z,21.40
2023-10-12T13:02:51.327Z,21.50
2023-10-12T13:05:19.049Z,21.60
2023-10-12T13:07:47.527Z,21.60
2023-10-12T13:10:15.335Z,21.40
2023-10-12T13:12:45.892Z,21.50
2023-10-12T13:15:16.173Z,21.80
2023-10-12T13:17:43.866Z,21.80
2023-10-12T13:20:23.911Z,21.70
2023-10-12T13:22:51.678Z,21.90
2023-10-12T13:25:20.026Z,22.00
2023-10-12T13:27:50.903Z,21.90
2023-10-12T13:30:19.661Z,21.80
2023-10-12T13:32:52.038Z,22.00
2023-10-12T13:35:19.849Z,21.90
2023-10-12T13:37:47.827Z,21.90
2023-10-12T13:40:18.403Z,21.90
2023-10-12T13:42:46.347Z,22.10
2023-10-12T13:45:14.253Z,22.20
2023-10-12T13:47:41.962Z,22.30
2023-10-12T13:50:13.251Z,22.30
2023-10-12T13:52:41.790Z,22.40
2023-10-12T13:55:15.772Z,22.60
2023-10-12T13:57:56.901Z,22.50
2023-10-12T14:00:28.523Z,22.60
2023-10-12T14:03:00.242Z,22.70
2023-10-12T14:05:31.289Z,22.70
2023-10-12T14:08:02.948Z,22.60
2023-10-12T14:10:31.069Z,22.40
2023-10-12T14:13:01.472Z,22.60
2023-10-12T14:15:29.257Z,22.60
2023-10-12T14:17:58.147Z,22.50
2023-10-12T14:20:28.011Z,22.50
2023-10-12T14:23:00.079Z,22.40
2023-10-12T14:25:29.398Z,22.20
2023-10-12T14:28:01.082Z,22.10
2023-10-12T14:30:31.506Z,22.00
2023-10-12T14:33:03.896Z,22.10
2023-10-12T14:35:33.402Z,22.00
2023-10-12T14:38:03.640Z,22.10
2023-10-12T14:40:32.561Z,22.00
2023-10-12T14:43:07.627Z,21.90
2023-10-12T14:45:37.655Z,21.90
2023-10-12T14:48:12.069Z,21.80
2023-10-12T14:50:47.273Z,21.60
2023-10-12T14:53:22.271Z,21.50
2023-10-12T14:55:52.293Z,21.40
2023-10-12T14:58:20.653Z,21.30
2023-10-12T15:00:48.921Z,21.20
2023-10-12T15:03:27.971Z,21.00
2023-10-12T15:05:57.273Z,20.80
2023-10-12T15:08:28.675Z,20.60
2023-10-12T15:10:57.541Z,20.30
2023-10-12T15:13:27.151Z,20.10
2023-10-12T15:15:55.725Z,20.40
2023-10-12T15:18:26.361Z,20.20
2023-10-12T15:20:58.279Z,20.00
2023-10-12T15:23:30.521Z,20.00
2023-10-12T15:25:59.781Z,19.90
2023-10-12T15:28:27.625Z,19.80
2023-10-12T15:30:55.362Z,19.60
2023-10-12T15:33:24.155Z,19.40
2023-10-12T15:35:52.373Z,19.30
2023-10-12T15:38:20.217Z,19.10
2023-10-12T15:40:47.992Z,18.90
2023-10-12T15:43:18.567Z,18.70
2023-10-12T15:45:48.284Z,18.40
2023-10-12T15:48:19.834Z,18.50
2023-10-12T15:50:47.526Z,18.30
2023-10-12T15:53:15.819Z,18.20
2023-10-12T15:55:45.988Z,18.20
2023-10-12T15:58:14.825Z,18.00
2023-10-12T16:00:43.323Z,17.70
2023-10-12T16:03:12.123Z,17.70
2023-10-12T16:05:43.133Z,17.70
2023-10-12T16:08:16.507Z,17.70
2023-10-12T16:10:50.714Z,17.60
2023-10-12T16:13:19.210Z,17.40
2023-10-12T16:15:47.675Z,17.30
2023-10-12T16:18:15.919Z,17.10
2023-10-12T16:20:44.563Z,17.20
2023-10-12T16:23:12.521Z,17.10
2023-10-12T16:25:40.357Z,17.00
2023-10-12T16:28:09.673Z,16.90
2023-10-12T16:30:37.770Z,17.00
2023-10-12T16:33:06.944Z,17.10
2023-10-12T16:35:36.460Z,17.00
2023-10-12T16:38:04.716Z,16.90
2023-10-12T16:40:32.848Z,16.80
2023-10-12T16:43:01.735Z,16.70
2023-10-12T16:45:29.804Z,16.80
2023-10-12T16:47:59.457Z,16.90
2023-10-12T16:50:27.485Z,16.80
2023-10-12T16:52:57.147Z,16.80
2023-10-12T16:55:25.111Z,16.80
2023-10-12T16:57:53.169Z,16.80
2023-10-12T17:00:22.770Z,16.70
2023-10-12T17:02:51.686Z,16.70
2023-10-12T17:05:21.109Z,16.70
2023-10-12T17:07:49.471Z,16.60
2023-10-12T17:10:30.056Z,16.70
2023-10-12T17:13:02.029Z,16.70
2023-10-12T17:15:30.313Z,16.70
2023-10-12T17:17:58.223Z,16.70
2023-10-12T17:20:27.686Z,16.60
2023-10-12T17:22:55.340Z,16.50
2023-10-12T17:25:23.395Z,16.40
2023-10-12T17:27:54.390Z,16.40
2023-10-12T17:30:24.705Z,16.40
2023-10-12T17:32:52.660Z,16.40
2023-10-12T17:35:21.092Z,16.40
2023-10-12T17:37:50.260Z,16.40
2023-10-12T17:40:19.833Z,16.50
2023-10-12T17:42:48.100Z,16.60
2023-10-12T17:45:19.204Z,16.70
2023-10-12T17:47:47.627Z,16.60
2023-10-12T17:50:15.811Z,16.50
2023-10-12T17:52:47.211Z,16.40
2023-10-12T17:55:18.779Z,16.60
2023-10-12T17:57:47.776Z,16.50
2023-10-12T18:00:20.533Z,16.50
2023-10-12T18:02:49.476Z,16.50
2023-10-12T18:05:17.616Z,16.40
2023-10-12T18:07:45.644Z,16.50
2023-10-12T18:10:17.431Z,16.50
2023-10-12T18:12:46.406Z,16.50
2023-10-12T18:15:16.184Z,16.50
2023-10-12T18:17:46.716Z,16.50
2023-10-12T18:20:18.792Z,16.40
2023-10-12T18:22:46.910Z,16.40
2023-10-12T18:25:16.364Z,16.30
2023-10-12T18:27:45.586Z,16.30
2023-10-12T18:30:16.034Z,16.30
2023-10-12T18:32:45.574Z,16.20
2023-10-12T18:35:17.703Z,16.30
2023-10-12T18:37:46.150Z,16.20
2023-10-12T18:40:16.273Z,16.30
2023-10-12T18:42:45.819Z,16.30
2023-10-12T18:45:16.424Z,16.30
2023-10-12T18:47:50.579Z,16.30
2023-10-12T18:50:20.024Z,16.30
2023-10-12T18:52:49.417Z,16.30
2023-10-12T18:55:18.947Z,16.30
2023-10-12T18:57:49.693Z,16.30
2023-10-12T19:00:21.772Z,16.40
2023-10-12T19:02:52.572Z,16.40
2023-10-12T19:05:25.495Z,16.30
2023-10-12T19:07:57.111Z,16.30
2023-10-12T19:10:26.235Z,16.30
2023-10-12T19:13:06.741Z,16.30
2023-10-12T19:15:43.533Z,16.30
2023-10-12T19:18:14.461Z,16.40
2023-10-12T19:20:47.248Z,16.50
2023-10-12T19:23:16.645Z,16.50
2023-10-12T19:25:45.901Z,16.50
2023-10-12T19:28:16.773Z,16.50
2023-10-12T19:30:46.744Z,16.50
2023-10-12T19:33:17.564Z,16.50
2023-10-12T19:35:47.188Z,16.40
2023-10-12T19:38:22.227Z,16.40
2023-10-12T19:40:52.298Z,16.30
2023-10-12T19:43:21.527Z,16.40
2023-10-12T19:45:50.644Z,16.30
2023-10-12T19:48:19.265Z,16.30
2023-10-12T19:50:48.455Z,16.40
2023-10-12T19:53:16.823Z,16.30
2023-10-12T19:55:47.854Z,16.30
2023-10-12T19:58:36.568Z,16.30
2023-10-12T20:01:13.621Z,16.30
2023-10-12T20:03:46.914Z,16.30
2023-10-12T20:06:16.523Z,16.20
2023-10-12T20:08:49.502Z,16.20
2023-10-12T20:11:19.632Z,16.30
2023-10-12T20:13:51.964Z,16.60
2023-10-12T20:16:22.938Z,16.80
2023-10-12T20:18:51.675Z,17.50
2023-10-12T20:21:21.636Z,17.50
2023-10-12T20:23:51.280Z,17.50
2023-10-12T20:26:19.776Z,17.70
2023-10-12T20:28:47.679Z,17.70
2023-10-12T20:31:15.679Z,17.90
2023-10-12T20:33:44.362Z,18.00
2023-10-12T20:36:12.373Z,18.00
2023-10-12T20:38:40.683Z,17.90
2023-10-12T20:41:08.473Z,17.70
2023-10-12T20:43:36.260Z,17.80
2023-10-12T20:46:11.043Z,17.90
2023-10-12T20:48:40.064Z,17.80
2023-10-12T20:51:08.121Z,18.00
2023-10-12T20:53:37.625Z,18.10
2023-10-12T20:56:07.613Z,18.00
2023-10-12T20:58:44.056Z,18.10
2023-10-12T21:01:21.873Z,18.10
2023-10-12T21:03:56.241Z,18.50
2023-10-12T21:06:28.923Z,18.40
2023-10-12T21:09:02.814Z,18.40
2023-10-12T21:11:33.839Z,18.30
2023-10-12T21:14:06.859Z,18.40
2023-10-12T21:16:36.003Z,18.30
2023-10-12T21:19:08.201Z,18.20
2023-10-12T21:21:35.921Z,18.20
2023-10-12T21:24:19.661Z,18.10
2023-10-12T21:26:50.245Z,18.20
2023-10-12T21:29:23.543Z,18.10
2023-10-12T21:31:52.073Z,18.40
2023-10-12T21:34:25.945Z,18.30
2023-10-12T21:36:54.193Z,18.40
2023-10-12T21:39:37.167Z,18.30
2023-10-12T21:42:11.148Z,18.40
2023-10-12T21:44:41.289Z,18.70
2023-10-12T21:47:13.153Z,18.70
2023-10-12T21:49:41.318Z,18.60
2023-10-12T21:52:09.328Z,18.50
2023-10-12T21:54:37.716Z,18.30
2023-10-12T21:57:11.390Z,17.90
2023-10-12T21:59:39.683Z,17.70
2023-10-12T22:02:17.769Z,17.60
2023-10-12T22:04:49.261Z,17.30
2023-10-12T22:07:17.583Z,17.30
2023-10-12T22:09:46.642Z,17.10
2023-10-12T22:12:15.446Z,17.00
2023-10-12T22:14:43.416Z,16.90
2023-10-12T22:17:12.986Z,17.00
2023-10-12T22:19:40.988Z,16.80
2023-10-12T22:22:09.573Z,16.70
2023-10-12T22:24:37.352Z,16.60
2023-10-12T22:27:05.181Z,16.40
2023-10-12T22:29:33.702Z,16.50
2023-10-12T22:32:01.492Z,16.50
2023-10-12T22:34:29.296Z,16.60
2023-10-12T22:36:57.103Z,16.60
2023-10-12T22:39:32.725Z,16.40
2023-10-12T22:42:03.038Z,16.40
2023-10-12T22:44:34.196Z,16.40
2023-10-12T22:47:04.170Z,16.40
2023-10-12T22:49:33.970Z,16.40
2023-10-12T22:52:02.155Z,16.50
2023-10-12T22:54:36.062Z,16.50
2023-10-12T22:57:06.529Z,16.70
2023-10-12T22:59:34.547Z,16.80
2023-10-12T23:02:02.475Z,17.10
2023-10-12T23:04:30.490Z,17.60
2023-10-12T23:06:58.314Z,18.00
2023-10-12T23:09:26.015Z,18.00
2023-10-12T23:11:57.344Z,18.00
2023-10-12T23:14:28.736Z,18.00
2023-10-12T23:16:59.670Z,18.20
2023-10-12T23:19:59.907Z,18.30
2023-10-12T23:22:27.700Z,18.60
2023-10-12T23:25:02.013Z,18.60
2023-10-12T23:27:34.412Z,18.60
2023-10-12T23:30:13.048Z,18.60
2023-10-12T23:32:41.528Z,18.40
2023-10-12T23:35:18.634Z,18.30
2023-10-12T23:38:13.120Z,18.30
2023-10-12T23:40:57.153Z,18.10
2023-10-12T23:43:26.134Z,18.30
2023-10-12T23:45:59.550Z,18.40
2023-10-12T23:48:27.596Z,18.30
2023-10-12T23:51:04.645Z,18.00
2023-10-12T23:53:40.857Z,17.90
2023-10-12T23:56:17.637Z,17.90
2023-10-12T23:58:45.417Z,18.00
